createdAt,value
2022-10-23T00:01:22.178Z,6.82
2022-10-23T00:03:52.883Z,6.22
2022-10-23T00:06:21.164Z,6.13
2022-10-23T00:08:49.953Z,6.50
2022-10-23T00:11:21.865Z,6.80
2022-10-23T00:13:51.008Z,6.60
2022-10-23T00:16:19.194Z,6.50
2022-10-23T00:18:47.666Z,6.05
2022-10-23T00:21:17.908Z,6.18
2022-10-23T00:23:46.735Z,6.05
2022-10-23T00:26:16.104Z,5.90
2022-10-23T00:28:47.525Z,6.40
2022-10-23T00:31:16.125Z,5.75
2022-10-23T00:33:45.266Z,6.03
2022-10-23T00:36:15.543Z,5.25
2022-10-23T00:38:45.614Z,6.80
2022-10-23T00:41:16.975Z,6.30
2022-10-23T00:44:06.814Z,6.75
2022-10-23T00:46:35.753Z,5.60
2022-10-23T00:49:05.075Z,6.30
2022-10-23T00:51:39.582Z,5.78
2022-10-23T00:54:25.079Z,6.07
2022-10-23T00:56:56.522Z,6.35
2022-10-23T00:59:27.014Z,5.45
2022-10-23T01:01:55.517Z,5.95
2022-10-23T01:04:24.502Z,6.47
2022-10-23T01:06:59.983Z,5.80
2022-10-23T01:09:32.994Z,5.80
2022-10-23T01:14:44.153Z,5.53
2022-10-23T01:17:19.663Z,5.65
2022-10-23T01:19:59.455Z,5.60
2022-10-23T01:22:41.840Z,4.88
2022-10-23T01:25:23.053Z,5.70
2022-10-23T01:27:56.832Z,5.55
2022-10-23T01:30:25.024Z,5.60
2022-10-23T01:32:57.012Z,5.80
2022-10-23T01:35:29.212Z,5.40
2022-10-23T01:38:06.627Z,5.65
2022-10-23T01:40:38.632Z,5.38
2022-10-23T01:43:18.007Z,5.75
2022-10-23T01:45:51.403Z,6.00
2022-10-23T01:48:27.365Z,6.25
2022-10-23T01:50:59.222Z,5.40
2022-10-23T01:53:31.004Z,5.63
2022-10-23T01:56:01.662Z,5.75
2022-10-23T01:58:33.158Z,5.63
2022-10-23T02:01:04.562Z,5.47
2022-10-23T02:03:35.881Z,5.10
2022-10-23T02:06:04.386Z,5.75
2022-10-23T02:08:32.612Z,6.07
2022-10-23T02:11:07.713Z,5.85
2022-10-23T02:13:44.935Z,5.32
2022-10-23T02:16:26.564Z,5.63
2022-10-23T02:19:04.314Z,5.75
2022-10-23T02:21:38.594Z,5.60
2022-10-23T02:24:12.535Z,5.53
2022-10-23T02:26:53.234Z,5.63
2022-10-23T02:29:28.554Z,5.18
2022-10-23T02:31:59.454Z,5.00
2022-10-23T02:34:27.854Z,5.15
2022-10-23T02:36:55.855Z,5.35
2022-10-23T02:39:26.374Z,5.20
2022-10-23T02:42:02.695Z,6.20
2022-10-23T02:44:43.434Z,5.63
2022-10-23T02:47:21.894Z,6.18
2022-10-23T02:49:54.496Z,5.72
2022-10-23T02:52:29.269Z,5.20
2022-10-23T02:55:09.744Z,6.15
2022-10-23T02:57:53.375Z,5.57
2022-10-23T03:00:24.321Z,5.22
2022-10-23T03:02:58.065Z,5.75
2022-10-23T03:05:32.094Z,5.55
2022-10-23T03:08:00.403Z,5.20
2022-10-23T03:10:28.575Z,5.63
2022-10-23T03:12:56.721Z,5.93
2022-10-23T03:15:26.684Z,5.43
2022-10-23T03:17:54.945Z,5.70
2022-10-23T03:20:23.133Z,5.38
2022-10-23T03:22:52.316Z,5.10
2022-10-23T03:25:20.307Z,5.38
2022-10-23T03:27:48.665Z,5.80
2022-10-23T03:30:18.145Z,5.15
2022-10-23T03:32:52.155Z,5.40
2022-10-23T03:35:20.304Z,5.93
2022-10-23T03:37:48.501Z,5.55
2022-10-23T03:40:17.415Z,5.75
2022-10-23T03:42:45.896Z,4.97
2022-10-23T03:45:18.234Z,5.15
2022-10-23T03:47:46.406Z,5.13
2022-10-23T03:50:17.016Z,5.50
2022-10-23T03:52:45.644Z,5.45
2022-10-23T03:55:14.256Z,5.35
2022-10-23T03:57:42.526Z,5.32
2022-10-23T04:00:12.105Z,5.60
2022-10-23T04:02:47.629Z,5.72
2022-10-23T04:05:18.005Z,5.45
2022-10-23T04:07:54.935Z,5.18
2022-10-23T04:10:23.286Z,5.28
2022-10-23T04:12:51.840Z,5.20
2022-10-23T04:15:20.017Z,5.82
2022-10-23T04:17:48.056Z,5.13
2022-10-23T04:20:18.134Z,6.18
2022-10-23T04:22:46.618Z,5.05
2022-10-23T04:27:43.211Z,5.50
2022-10-23T04:30:13.267Z,5.68
2022-10-23T04:32:41.605Z,5.40
2022-10-23T04:35:09.965Z,5.88
2022-10-23T04:37:39.706Z,5.45
2022-10-23T04:40:09.937Z,5.43
2022-10-23T04:42:39.286Z,5.38
2022-10-23T04:45:08.169Z,5.70
2022-10-23T04:47:36.777Z,6.00
2022-10-23T04:50:05.949Z,5.60
2022-10-23T04:53:13.877Z,6.53
2022-10-23T04:56:02.200Z,5.95
2022-10-23T04:58:46.267Z,5.93
2022-10-23T05:01:14.531Z,5.50
2022-10-23T05:03:42.728Z,5.30
2022-10-23T05:06:10.846Z,5.78
2022-10-23T05:08:58.787Z,5.18
2022-10-23T05:11:45.547Z,5.93
2022-10-23T05:14:18.072Z,5.85
2022-10-23T05:16:52.448Z,6.07
2022-10-23T05:19:24.457Z,4.97
2022-10-23T05:21:56.248Z,5.97
2022-10-23T05:24:34.477Z,5.78
2022-10-23T05:27:03.647Z,6.03
2022-10-23T05:29:32.987Z,6.00
2022-10-23T05:32:04.049Z,5.40
2022-10-23T05:34:35.539Z,6.05
2022-10-23T05:37:08.097Z,5.78
2022-10-23T05:39:41.716Z,5.65
2022-10-23T05:42:15.332Z,5.85
2022-10-23T05:44:43.456Z,6.53
2022-10-23T05:47:31.787Z,5.97
2022-10-23T05:50:20.017Z,5.82
2022-10-23T05:53:11.127Z,5.95
2022-10-23T05:56:06.058Z,6.00
2022-10-23T05:59:07.979Z,6.68
2022-10-23T06:01:53.810Z,7.18
2022-10-23T06:04:35.568Z,7.38
2022-10-23T06:07:32.336Z,8.73
2022-10-23T06:10:06.616Z,9.25
2022-10-23T06:12:40.443Z,9.20
2022-10-23T06:15:11.525Z,8.73
2022-10-23T06:20:29.232Z,8.50
2022-10-23T06:23:08.299Z,8.23
2022-10-23T06:26:06.203Z,8.20
2022-10-23T06:28:50.387Z,8.00
2022-10-23T06:31:26.933Z,7.97
2022-10-23T06:33:58.477Z,8.13
2022-10-23T06:36:27.460Z,7.78
2022-10-23T06:39:02.075Z,7.82
2022-10-23T06:41:50.181Z,7.13
2022-10-23T06:44:39.567Z,7.38
2022-10-23T06:47:14.472Z,7.20
2022-10-23T06:50:05.848Z,7.13
2022-10-23T06:52:46.605Z,7.47
2022-10-23T06:55:18.147Z,7.13
2022-10-23T06:57:47.290Z,7.47
2022-10-23T07:00:17.276Z,7.35
2022-10-23T07:02:53.083Z,7.07
2022-10-23T07:05:21.778Z,7.25
2022-10-23T07:07:49.816Z,7.28
2022-10-23T07:10:25.167Z,7.47
2022-10-23T07:13:01.378Z,7.30
2022-10-23T07:15:42.616Z,7.13
2022-10-23T07:18:17.216Z,7.10
2022-10-23T07:21:20.448Z,6.95
2022-10-23T07:23:51.177Z,6.82
2022-10-23T07:26:19.989Z,7.07
2022-10-23T07:28:51.777Z,7.30
2022-10-23T07:31:27.967Z,7.20
2022-10-23T07:34:14.667Z,7.22
2022-10-23T07:36:44.547Z,8.02
2022-10-23T07:39:14.387Z,7.50
2022-10-23T07:41:49.338Z,7.45
2022-10-23T07:44:21.067Z,7.10
2022-10-23T07:46:53.317Z,8.68
2022-10-23T07:49:21.326Z,9.65
2022-10-23T07:51:51.450Z,9.88
2022-10-23T07:54:20.828Z,9.15
2022-10-23T07:57:07.758Z,9.32
2022-10-23T07:59:43.707Z,9.82
2022-10-23T08:02:15.908Z,10.13
2022-10-23T08:04:45.256Z,10.20
2022-10-23T08:07:35.887Z,10.48
2022-10-23T08:10:04.769Z,9.98
2022-10-23T08:12:34.177Z,9.75
2022-10-23T08:15:02.368Z,10.13
2022-10-23T08:17:40.216Z,9.20
2022-10-23T08:20:17.437Z,10.85
2022-10-23T08:22:47.098Z,9.63
2022-10-23T08:25:24.908Z,11.52
2022-10-23T08:27:54.837Z,11.60
2022-10-23T08:30:23.290Z,12.93
2022-10-23T08:32:53.009Z,14.73
2022-10-23T08:35:21.458Z,14.52
2022-10-23T08:37:49.805Z,15.98
2022-10-23T08:40:20.233Z,16.63
2022-10-23T08:43:18.024Z,12.80
2022-10-23T08:46:06.171Z,11.48
2022-10-23T08:49:16.493Z,10.48
2022-10-23T08:51:58.053Z,10.30
2022-10-23T08:54:34.494Z,11.23
2022-10-23T08:59:40.157Z,14.52
2022-10-23T09:02:16.040Z,19.60
2022-10-23T09:04:49.071Z,19.80
2022-10-23T09:07:26.823Z,16.58
2022-10-23T09:10:04.168Z,14.38
2022-10-23T09:12:32.628Z,12.65
2022-10-23T09:15:19.243Z,9.75
2022-10-23T09:17:49.274Z,9.27
2022-10-23T09:20:24.187Z,9.07
2022-10-23T09:22:57.865Z,8.82
2022-10-23T09:25:29.478Z,7.80
2022-10-23T09:28:04.260Z,7.32
2022-10-23T09:30:35.386Z,7.40
2022-10-23T09:33:15.474Z,8.02
2022-10-23T09:35:57.178Z,7.32
2022-10-23T09:38:31.772Z,8.07
2022-10-23T09:41:03.253Z,7.78
2022-10-23T09:43:31.287Z,8.75
2022-10-23T09:46:06.465Z,7.78
2022-10-23T09:48:37.193Z,8.18
2022-10-23T09:51:19.237Z,9.50
2022-10-23T09:53:53.934Z,8.80
2022-10-23T09:56:27.744Z,9.63
2022-10-23T09:58:59.485Z,8.30
2022-10-23T10:01:30.404Z,8.15
2022-10-23T10:04:15.963Z,7.80
2022-10-23T10:06:45.915Z,8.35
2022-10-23T10:09:25.364Z,8.48
2022-10-23T10:12:02.874Z,8.15
2022-10-23T10:14:43.774Z,8.27
2022-10-23T10:17:21.483Z,8.07
2022-10-23T10:20:08.503Z,12.85
2022-10-23T10:22:43.063Z,8.48
2022-10-23T10:25:20.323Z,8.80
2022-10-23T10:27:57.995Z,8.18
2022-10-23T10:30:30.344Z,7.80
2022-10-23T10:33:03.854Z,7.88
2022-10-23T10:35:41.104Z,7.18
2022-10-23T10:38:33.092Z,7.53
2022-10-23T10:41:20.814Z,7.72
2022-10-23T10:43:59.663Z,7.43
2022-10-23T10:46:36.962Z,6.90
2022-10-23T10:49:13.243Z,7.18
2022-10-23T10:52:14.165Z,8.20
2022-10-23T10:54:55.135Z,7.22
2022-10-23T10:57:32.665Z,7.10
2022-10-23T11:00:04.869Z,6.93
2022-10-23T11:02:39.153Z,7.30
2022-10-23T11:05:18.845Z,7.05
2022-10-23T11:07:54.734Z,7.18
2022-10-23T11:10:24.543Z,7.30
2022-10-23T11:12:53.023Z,7.70
2022-10-23T11:15:26.384Z,7.60
2022-10-23T11:17:58.794Z,6.60
2022-10-23T11:20:47.225Z,6.95
2022-10-23T11:23:49.905Z,6.88
2022-10-23T11:26:48.798Z,6.35
2022-10-23T11:29:36.114Z,6.50
2022-10-23T11:32:20.350Z,7.05
2022-10-23T11:35:11.034Z,6.72
2022-10-23T11:38:35.373Z,6.80
2022-10-23T11:41:50.493Z,5.85
2022-10-23T11:44:42.990Z,7.07
2022-10-23T11:47:37.987Z,6.93
2022-10-23T11:50:26.163Z,6.55
2022-10-23T11:53:15.466Z,6.68
2022-10-23T11:56:02.015Z,6.32
2022-10-23T11:58:45.494Z,6.30
2022-10-23T12:01:36.977Z,6.78
2022-10-23T12:04:17.223Z,7.18
2022-10-23T12:06:48.114Z,6.20
2022-10-23T12:09:29.843Z,7.30
2022-10-23T12:12:17.997Z,6.43
2022-10-23T12:14:51.405Z,6.45
2022-10-23T12:17:36.389Z,6.70
2022-10-23T12:20:26.165Z,6.70
2022-10-23T12:23:36.177Z,7.32
2022-10-23T12:26:37.957Z,6.40
2022-10-23T12:29:19.048Z,6.05
2022-10-23T12:31:55.776Z,6.35
2022-10-23T12:34:37.193Z,7.15
2022-10-23T12:37:38.092Z,7.78
2022-10-23T12:40:09.737Z,7.72
2022-10-23T12:42:38.782Z,7.43
2022-10-23T12:45:18.777Z,5.78
2022-10-23T12:47:49.863Z,6.88
2022-10-23T12:50:20.463Z,6.30
2022-10-23T12:52:53.333Z,6.68
2022-10-23T12:55:22.181Z,6.32
2022-10-23T12:57:50.872Z,6.85
2022-10-23T13:00:21.161Z,6.30
2022-10-23T13:03:01.772Z,9.68
2022-10-23T13:05:32.451Z,7.65
2022-10-23T13:08:03.053Z,7.60
2022-10-23T13:10:48.641Z,6.68
2022-10-23T13:13:24.357Z,7.35
2022-10-23T13:15:52.612Z,6.15
2022-10-23T13:18:22.481Z,5.97
2022-10-23T13:20:59.048Z,6.38
2022-10-23T13:23:33.564Z,6.55
2022-10-23T13:26:03.383Z,6.32
2022-10-23T13:28:33.914Z,6.40
2022-10-23T13:31:08.373Z,6.05
2022-10-23T13:33:41.669Z,6.13
2022-10-23T13:36:24.152Z,6.35
2022-10-23T13:39:05.252Z,6.05
2022-10-23T13:41:38.956Z,6.13
2022-10-23T13:44:07.541Z,6.05
2022-10-23T13:46:35.683Z,5.93
2022-10-23T13:49:05.543Z,6.88
2022-10-23T13:51:40.194Z,6.13
2022-10-23T13:54:15.490Z,6.30
2022-10-23T13:56:44.002Z,6.50
2022-10-23T13:59:13.152Z,6.45
2022-10-23T14:01:42.107Z,6.45
2022-10-23T14:04:12.642Z,6.03
2022-10-23T14:06:42.081Z,6.60
2022-10-23T14:09:16.152Z,6.40
2022-10-23T14:11:44.781Z,5.82
2022-10-23T14:14:13.136Z,5.97
2022-10-23T14:16:41.389Z,6.40
2022-10-23T14:19:11.962Z,6.65
2022-10-23T14:21:40.324Z,7.22
2022-10-23T14:24:09.711Z,6.53
2022-10-23T14:26:38.402Z,7.47
2022-10-23T14:29:09.860Z,5.97
2022-10-23T14:31:39.771Z,6.38
2022-10-23T14:34:07.952Z,6.53
2022-10-23T14:36:49.517Z,7.00
2022-10-23T14:39:19.193Z,6.82
2022-10-23T14:41:47.353Z,6.20
2022-10-23T14:44:15.565Z,6.93
2022-10-23T14:46:43.860Z,6.57
2022-10-23T14:49:12.391Z,6.68
2022-10-23T14:51:42.227Z,6.57
2022-10-23T14:54:10.481Z,6.57
2022-10-23T14:56:40.966Z,7.32
2022-10-23T14:59:10.971Z,7.25
2022-10-23T15:01:43.735Z,6.32
2022-10-23T15:04:15.113Z,7.00
2022-10-23T15:06:47.591Z,6.68
2022-10-23T15:09:16.652Z,7.00
2022-10-23T15:11:44.791Z,7.20
2022-10-23T15:14:13.162Z,6.82
2022-10-23T15:16:43.882Z,6.43
2022-10-23T15:19:17.157Z,6.45
2022-10-23T15:21:48.771Z,6.63
2022-10-23T15:24:18.141Z,6.55
2022-10-23T15:26:46.942Z,7.15
2022-10-23T15:29:16.453Z,7.32
2022-10-23T15:31:46.938Z,7.43
2022-10-23T15:34:17.952Z,7.03
2022-10-23T15:36:48.684Z,6.38
2022-10-23T15:39:19.845Z,6.40
2022-10-23T15:41:50.581Z,6.63
2022-10-23T15:44:20.391Z,7.15
2022-10-23T15:46:49.332Z,6.30
2022-10-23T15:49:18.372Z,6.60
2022-10-23T15:51:48.523Z,6.50
2022-10-23T15:54:19.451Z,6.60
2022-10-23T15:56:48.893Z,7.28
2022-10-23T15:59:18.063Z,6.65
2022-10-23T16:01:46.719Z,6.50
2022-10-23T16:04:16.401Z,6.53
2022-10-23T16:06:45.053Z,6.45
2022-10-23T16:09:15.408Z,7.60
2022-10-23T16:11:44.393Z,7.10
2022-10-23T16:14:14.447Z,7.95
2022-10-23T16:16:43.111Z,6.82
2022-10-23T16:19:12.491Z,6.70
2022-10-23T16:21:40.761Z,7.03
2022-10-23T16:24:09.832Z,6.35
2022-10-23T16:26:40.112Z,7.28
2022-10-23T16:29:10.049Z,7.28
2022-10-23T16:31:38.832Z,7.15
2022-10-23T16:34:07.368Z,7.63
2022-10-23T16:36:35.903Z,7.15
2022-10-23T16:39:31.898Z,7.05
2022-10-23T16:42:20.698Z,7.22
2022-10-23T16:45:06.132Z,7.85
2022-10-23T16:47:35.174Z,6.80
2022-10-23T16:50:03.840Z,9.60
2022-10-23T16:52:32.413Z,8.50
2022-10-23T16:55:00.935Z,8.70
2022-10-23T16:57:31.380Z,7.20
2022-10-23T17:00:00.182Z,7.38
2022-10-23T17:02:28.933Z,7.22
2022-10-23T17:04:58.075Z,7.90
2022-10-23T17:07:26.686Z,7.57
2022-10-23T17:09:55.317Z,8.45
2022-10-23T17:14:54.090Z,8.35
2022-10-23T17:17:24.519Z,8.27
2022-10-23T17:19:53.128Z,7.65
2022-10-23T17:22:21.795Z,7.40
2022-10-23T17:24:54.009Z,7.85
2022-10-23T17:27:23.057Z,7.55
2022-10-23T17:29:53.263Z,7.35
2022-10-23T17:34:55.750Z,8.10
2022-10-23T17:37:24.316Z,8.18
2022-10-23T17:39:53.005Z,7.72
2022-10-23T17:42:21.598Z,8.77
2022-10-23T17:44:50.239Z,8.00
2022-10-23T17:47:20.498Z,8.20
2022-10-23T17:49:49.044Z,8.93
2022-10-23T17:52:17.917Z,7.80
2022-10-23T17:54:46.777Z,8.38
2022-10-23T17:57:15.245Z,7.90
2022-10-23T17:59:43.969Z,7.70
2022-10-23T18:02:13.670Z,7.18
2022-10-23T18:04:44.033Z,8.45
2022-10-23T18:07:13.658Z,8.70
2022-10-23T18:09:42.075Z,8.45
2022-10-23T18:12:10.685Z,7.65
2022-10-23T18:14:39.304Z,8.35
2022-10-23T18:17:07.898Z,7.95
2022-10-23T18:19:37.105Z,8.23
2022-10-23T18:22:07.463Z,7.82
2022-10-23T18:24:36.827Z,7.55
2022-10-23T18:27:05.482Z,7.43
2022-10-23T18:29:34.288Z,7.47
2022-10-23T18:32:02.984Z,8.50
2022-10-23T18:34:31.633Z,7.10
2022-10-23T18:37:01.048Z,7.72
2022-10-23T18:39:31.580Z,7.00
2022-10-23T18:42:00.748Z,7.57
2022-10-23T18:44:29.753Z,7.68
2022-10-23T18:46:59.523Z,8.07
2022-10-23T18:49:28.696Z,8.00
2022-10-23T18:51:59.107Z,6.65
2022-10-23T18:54:27.846Z,7.47
2022-10-23T18:56:57.843Z,8.40
2022-10-23T18:59:26.454Z,7.28
2022-10-23T19:01:55.184Z,8.30
2022-10-23T19:04:24.025Z,8.20
2022-10-23T19:06:52.644Z,8.15
2022-10-23T19:09:22.060Z,8.10
2022-10-23T19:11:56.962Z,8.25
2022-10-23T19:14:32.059Z,7.90
2022-10-23T19:17:04.088Z,8.05
2022-10-23T19:19:36.695Z,8.38
2022-10-23T19:22:06.133Z,7.75
2022-10-23T19:24:40.203Z,8.63
2022-10-23T19:27:09.763Z,7.70
2022-10-23T19:29:44.768Z,7.22
2022-10-23T19:32:13.983Z,8.45
2022-10-23T19:34:42.854Z,7.88
2022-10-23T19:39:48.054Z,7.28
2022-10-23T19:42:16.693Z,7.90
2022-10-23T19:44:46.853Z,7.90
2022-10-23T19:47:15.843Z,8.73
2022-10-23T19:49:44.554Z,8.90
2022-10-23T19:52:13.176Z,7.97
2022-10-23T19:54:42.088Z,8.25
2022-10-23T19:57:19.210Z,7.57
2022-10-23T19:59:53.434Z,7.80
2022-10-23T20:02:22.527Z,8.35
2022-10-23T20:04:51.197Z,7.90
2022-10-23T20:07:19.850Z,7.55
2022-10-23T20:09:49.247Z,7.55
2022-10-23T20:12:17.807Z,7.32
2022-10-23T20:14:46.385Z,7.07
2022-10-23T20:17:16.643Z,6.95
2022-10-23T20:19:49.114Z,6.88
2022-10-23T20:22:18.676Z,7.40
2022-10-23T20:24:57.428Z,7.72
2022-10-23T20:27:29.366Z,7.60
2022-10-23T20:29:58.473Z,7.45
2022-10-23T20:32:28.974Z,7.25
2022-10-23T20:34:57.858Z,6.97
2022-10-23T20:37:26.193Z,6.95
2022-10-23T20:39:55.812Z,7.13
2022-10-23T20:42:24.153Z,7.30
2022-10-23T20:44:52.717Z,7.15
2022-10-23T20:47:20.782Z,6.95
2022-10-23T20:49:50.772Z,7.43
2022-10-23T20:52:19.292Z,6.93
2022-10-23T20:54:47.552Z,6.57
2022-10-23T20:57:19.150Z,6.95
2022-10-23T20:59:49.622Z,6.38
2022-10-23T21:02:18.150Z,6.53
2022-10-23T21:04:48.052Z,6.63
2022-10-23T21:09:51.822Z,6.75
2022-10-23T21:12:19.931Z,6.30
2022-10-23T21:14:48.361Z,6.90
2022-10-23T21:17:18.302Z,6.43
2022-10-23T21:19:46.908Z,7.05
2022-10-23T21:22:16.802Z,6.63
2022-10-23T21:24:45.157Z,7.00
2022-10-23T21:27:25.212Z,7.55
2022-10-23T21:29:53.352Z,6.68
2022-10-23T21:32:21.765Z,6.88
2022-10-23T21:34:50.531Z,7.38
2022-10-23T21:37:20.342Z,7.43
2022-10-23T21:39:48.512Z,7.63
2022-10-23T21:42:16.630Z,7.55
2022-10-23T21:44:44.911Z,6.90
2022-10-23T21:47:13.032Z,6.63
2022-10-23T21:49:41.351Z,6.85
2022-10-23T21:52:09.393Z,6.85
2022-10-23T21:54:40.694Z,8.30
2022-10-23T21:57:14.913Z,7.20
2022-10-23T21:59:44.112Z,7.30
2022-10-23T22:02:12.337Z,6.88
2022-10-23T22:04:41.032Z,6.70
2022-10-23T22:07:15.050Z,6.63
2022-10-23T22:09:45.102Z,7.75
2022-10-23T22:12:13.483Z,6.82
2022-10-23T22:14:41.593Z,6.82
2022-10-23T22:17:09.893Z,6.35
2022-10-23T22:19:38.162Z,7.18
2022-10-23T22:22:06.442Z,6.28
2022-10-23T22:24:35.842Z,7.28
2022-10-23T22:27:05.535Z,7.60
2022-10-23T22:29:33.817Z,7.45
2022-10-23T22:32:02.002Z,7.47
2022-10-23T22:37:19.423Z,7.15
2022-10-23T22:39:50.376Z,7.25
2022-10-23T22:42:20.507Z,7.28
2022-10-23T22:44:48.673Z,7.90
2022-10-23T22:47:16.763Z,7.38
2022-10-23T22:49:44.872Z,7.35
2022-10-23T22:52:12.993Z,7.30
2022-10-23T22:54:41.232Z,7.60
2022-10-23T22:57:09.252Z,7.28
2022-10-23T22:59:38.873Z,7.82
2022-10-23T23:02:07.202Z,8.02
2022-10-23T23:04:38.284Z,6.90
2022-10-23T23:07:07.843Z,8.15
2022-10-23T23:09:38.145Z,6.93
2022-10-23T23:12:06.792Z,7.15
2022-10-23T23:14:35.083Z,7.47
2022-10-23T23:17:04.981Z,7.47
2022-10-23T23:19:33.332Z,7.70
2022-10-23T23:22:01.802Z,7.75
2022-10-23T23:24:29.873Z,6.90
2022-10-23T23:26:58.053Z,6.30
2022-10-23T23:29:27.302Z,7.47
2022-10-23T23:31:55.575Z,7.28
2022-10-23T23:34:25.312Z,7.10
2022-10-23T23:36:53.616Z,6.97
2022-10-23T23:39:21.694Z,7.13
2022-10-23T23:41:49.874Z,7.15
2022-10-23T23:44:17.962Z,6.95
2022-10-23T23:46:46.191Z,7.05
2022-10-23T23:49:14.355Z,6.97
2022-10-23T23:51:43.901Z,7.15
2022-10-23T23:54:12.102Z,7.60
2022-10-23T23:56:40.184Z,7.50
2022-10-23T23:59:08.352Z,7.65
